^^
Willowsford Farm Weather Station Historical Data
 
Daily Summary for April 24, 2024 Units:  English    Metric   Both
Daily Weekly Monthly Yearly
  Current: High: Low: Average:
Temperature: 58.6 °F 74.3 °F 56.3 °F 65 °F
Dew Point: 39.8 °F 49.3 °F 38.5 °F 43 °F
Humidity: 49.5% 65.3% 30.3% 46%
Wind Speed: 0.8mph 9.9mph 0mph 3.4mph
Wind Gust: 3.6mph 25.3mph - -
WindNNW - - West
Pressure: 30.04 in 30.04 in 29.84 in -
Precipitation: 0.00 in      
 
 
Tabular Data for April 24, 2024
Time Temperature Dew Point Pressure Wind Wind Speed Wind Gust Humidity Rainfall Rate (Hourly)
00:04 61.3 °F 38.7 °F 29.87 in SSW 3.6 mph 10.8 mph 43.2% 0.00 in
00:09 61 °F 38.7 °F 29.87 in South 5 mph 10.8 mph 43.7% 0.00 in
00:14 60.8 °F 38.7 °F 29.87 in South 3.9 mph 10.4 mph 44% 0.00 in
00:19 60.6 °F 39 °F 29.86 in SSW 3.6 mph 7.2 mph 44.8% 0.00 in
00:24 60.4 °F 38.9 °F 29.86 in SSW 4.4 mph 10.8 mph 45% 0.00 in
00:29 60.5 °F 39.2 °F 29.86 in SSW 4.2 mph 10.8 mph 45.3% 0.00 in
00:34 60.6 °F 39.5 °F 29.86 in South 3.7 mph 8.4 mph 45.7% 0.00 in
00:39 60.6 °F 39.6 °F 29.86 in SSW 3.6 mph 8.1 mph 45.8% 0.00 in
00:44 60.6 °F 39.7 °F 29.86 in SSW 3.7 mph 9.6 mph 46% 0.00 in
00:49 60.6 °F 40 °F 29.86 in SSW 3.1 mph 7.2 mph 46.5% 0.00 in
00:54 60.6 °F 39.9 °F 29.86 in SSW 3.4 mph 7.2 mph 46.5% 0.00 in
00:59 60.7 °F 40 °F 29.86 in SSW 4.3 mph 8.4 mph 46.4% 0.00 in
01:04 60.8 °F 40.4 °F 29.85 in SSW 3.4 mph 7.2 mph 46.9% 0.00 in
01:09 60.9 °F 40.5 °F 29.85 in South 3.2 mph 7.2 mph 47.1% 0.00 in
01:14 60.9 °F 40.9 °F 29.85 in SSW 3.3 mph 6.9 mph 47.7% 0.00 in
01:19 60.9 °F 40.7 °F 29.85 in SW 3.8 mph 8.4 mph 47.4% 0.00 in
01:24 61.1 °F 40.9 °F 29.85 in SSW 4 mph 8.4 mph 47.4% 0.00 in
01:29 61.3 °F 41.2 °F 29.85 in SW 3.9 mph 8.1 mph 47.5% 0.00 in
01:34 61.4 °F 41.3 °F 29.85 in SW 2.4 mph 6 mph 47.8% 0.00 in
01:39 61.3 °F 41.3 °F 29.85 in SW 2 mph 6 mph 47.8% 0.00 in
01:44 61.2 °F 41.5 °F 29.85 in SW 1.6 mph 5.8 mph 48.3% 0.00 in
01:49 61.1 °F 41.3 °F 29.85 in SSW 2.5 mph 4.8 mph 48.2% 0.00 in
01:54 61.1 °F 41.4 °F 29.85 in South 2.7 mph 4.8 mph 48.2% 0.00 in
01:59 61.1 °F 41.2 °F 29.85 in South 2.9 mph 6 mph 48% 0.00 in
02:04 61.2 °F 41.4 °F 29.85 in South 2.4 mph 6 mph 48.2% 0.00 in
02:09 61.1 °F 41.7 °F 29.85 in SSW 2.7 mph 4.8 mph 48.8% 0.00 in
02:14 61.1 °F 41.5 °F 29.85 in South 2.3 mph 4.8 mph 48.5% 0.00 in
02:19 61.1 °F 41.8 °F 29.84 in SSW 2.7 mph 6 mph 49.2% 0.00 in
02:24 61 °F 41.7 °F 29.84 in SSW 2.1 mph 4.8 mph 49% 0.00 in
02:29 60.9 °F 41.8 °F 29.84 in South 0.8 mph 2.4 mph 49.3% 0.00 in
02:34 60.8 °F 41.9 °F 29.84 in SSW 1.6 mph 6 mph 49.7% 0.00 in
02:39 60.7 °F 41.9 °F 29.84 in SSW 0.1 mph 1.2 mph 50% 0.00 in
02:44 60.5 °F 41.8 °F 29.84 in SSW 0.3 mph 1.2 mph 50% 0.00 in
02:49 60.4 °F 41.7 °F 29.84 in SSW 0.8 mph 3.6 mph 50.1% 0.00 in
02:54 60.2 °F 42.4 °F 29.84 in SSW 0.4 mph 2.4 mph 51.7% 0.00 in
02:59 59.9 °F 42.7 °F 29.84 in WSW 1.3 mph 3.6 mph 52.9% 0.00 in
03:04 59.7 °F 42.4 °F 29.84 in West 0.5 mph 2.4 mph 53% 0.00 in
03:09 59.4 °F 42.5 °F 29.84 in West 0.4 mph 2.4 mph 53.5% 0.00 in
03:14 59.2 °F 42.6 °F 29.85 in West 0.6 mph 2.4 mph 54.1% 0.00 in
03:19 59 °F 43.4 °F 29.85 in West 0.2 mph 2.3 mph 56.3% 0.00 in
03:24 58.7 °F 43.1 °F 29.85 in Calm     56.2% 0.00 in
03:29 58.5 °F 43.5 °F 29.85 in Calm     57.6% 0.00 in
03:34 58.2 °F 43.7 °F 29.84 in Calm     58.3% 0.00 in
03:39 58 °F 43.1 °F 29.84 in West 0.1 mph 1.2 mph 57.5% 0.00 in
03:44 58 °F 42.7 °F 29.84 in West 0.4 mph 2.4 mph 56.8% 0.00 in
03:49 58.2 °F 43.3 °F 29.84 in West 0.1 mph 2.3 mph 57.6% 0.00 in
03:54 58.2 °F 43.3 °F 29.84 in West 0.2 mph 1.2 mph 57.7% 0.00 in
03:59 58 °F 43.8 °F 29.85 in West 0.6 mph 2.4 mph 59.2% 0.00 in
04:04 57.8 °F 44.1 °F 29.85 in West 0.9 mph 3.6 mph 60.3% 0.00 in
04:09 57.7 °F 43.4 °F 29.85 in WSW 0.3 mph 1.2 mph 58.8% 0.00 in
04:14 57.7 °F 43.6 °F 29.85 in Calm   1.2 mph 59.3% 0.00 in
04:19 57.7 °F 44.3 °F 29.85 in Calm     61% 0.00 in
04:24 57.7 °F 44.5 °F 29.85 in Calm     61.3% 0.00 in
04:29 57.5 °F 45 °F 29.85 in Calm     63% 0.00 in
04:34 57.4 °F 44.2 °F 29.85 in Calm     61.3% 0.00 in
04:39 57.3 °F 44.5 °F 29.85 in Calm     62.3% 0.00 in
04:44 57.2 °F 44.2 °F 29.85 in Calm     61.7% 0.00 in
04:49 57.2 °F 44 °F 29.85 in Calm     61.1% 0.00 in
04:54 57.1 °F 44.2 °F 29.85 in Calm     62% 0.00 in
04:59 56.9 °F 43.8 °F 29.85 in WSW 0.1 mph 1.2 mph 61.4% 0.00 in
05:04 56.9 °F 44.5 °F 29.84 in Calm   1.2 mph 63.3% 0.00 in
05:09 56.8 °F 45.3 °F 29.84 in WSW 0.2 mph 1.2 mph 65.3% 0.00 in
05:14 56.6 °F 44.7 °F 29.85 in Calm     64.4% 0.00 in
05:19 56.4 °F 43.9 °F 29.85 in WSW 0.1 mph 1.2 mph 62.8% 0.00 in
05:24 56.4 °F 43.6 °F 29.85 in WSW 0.2 mph 1.2 mph 62.3% 0.00 in
05:29 56.3 °F 43.9 °F 29.85 in WSW 0.5 mph 1.2 mph 63% 0.00 in
05:34 56.4 °F 43.7 °F 29.85 in SW 0.8 mph 2.4 mph 62.5% 0.00 in
05:39 56.6 °F 43.6 °F 29.85 in South 1.5 mph 6 mph 61.8% 0.00 in
05:44 56.6 °F 43.7 °F 29.85 in SSW 2.5 mph 5.8 mph 62.1% 0.00 in
05:49 56.7 °F 43.7 °F 29.85 in South 2.7 mph 6 mph 61.6% 0.00 in
05:54 56.9 °F 43.7 °F 29.85 in South 2.1 mph 4.6 mph 61.2% 0.00 in
05:59 56.9 °F 43.7 °F 29.86 in South 1.8 mph 3.6 mph 61.2% 0.00 in
06:04 57.1 °F 43.9 °F 29.86 in South 1.6 mph 3.6 mph 61.3% 0.00 in
06:09 57.1 °F 43.8 °F 29.86 in South 2.1 mph 3.6 mph 61% 0.00 in
06:14 57.3 °F 43.5 °F 29.87 in South 2 mph 3.6 mph 59.9% 0.00 in
06:19 57.6 °F 43.9 °F 29.87 in South 1.7 mph 3.5 mph 60.4% 0.00 in
06:24 57.7 °F 43.9 °F 29.87 in South 2.3 mph 3.6 mph 60.1% 0.00 in
06:29 57.7 °F 43.6 °F 29.87 in South 1.4 mph 3.6 mph 59.2% 0.00 in
06:34 57.7 °F 43.7 °F 29.87 in South 1.2 mph 4.8 mph 59.6% 0.00 in
06:39 57.7 °F 43.6 °F 29.87 in SSW 1.2 mph 6 mph 59.3% 0.00 in
06:44 57.5 °F 43.6 °F 29.87 in SSW 1 mph 2.4 mph 59.6% 0.00 in
06:49 57.5 °F 43.3 °F 29.87 in SSW 0.7 mph 2.4 mph 59% 0.00 in
06:54 57.7 °F 43.4 °F 29.87 in SSW 1.2 mph 8.4 mph 59% 0.00 in
06:59 58 °F 43.6 °F 29.88 in SSW 1.4 mph 6.9 mph 58.6% 0.00 in
07:04 58.5 °F 43.7 °F 29.88 in SSW 1.8 mph 3.6 mph 57.8% 0.00 in
07:09 58.9 °F 43.8 °F 29.88 in SW 1.5 mph 4.8 mph 57.2% 0.00 in
07:14 59.2 °F 43.7 °F 29.88 in SW 0.1 mph 2.3 mph 56.4% 0.00 in
07:19 59.5 °F 43.5 °F 29.88 in SW 0.2 mph 1.2 mph 55.4% 0.00 in
07:24 59.8 °F 44 °F 29.88 in SW 0.7 mph 3.6 mph 55.7% 0.00 in
07:29 60 °F 44.4 °F 29.88 in SW 0.4 mph 3.6 mph 56.4% 0.00 in
07:34 60 °F 45.2 °F 29.88 in SW 0.4 mph 2.4 mph 58.1% 0.00 in
07:39 60 °F 45 °F 29.88 in SW 0.3 mph 2.4 mph 57.5% 0.00 in
07:44 60.2 °F 45.4 °F 29.89 in SW 1.2 mph 2.4 mph 58.1% 0.00 in
07:49 60.2 °F 46 °F 29.89 in SW 0.8 mph 3.6 mph 59.4% 0.00 in
07:54 60.2 °F 45.9 °F 29.89 in SSW 0.7 mph 2.4 mph 59.2% 0.00 in
07:59 60.2 °F 45.8 °F 29.90 in SSW 0.5 mph 2.4 mph 59% 0.00 in
08:04 60.3 °F 46.2 °F 29.90 in SSW 0.4 mph 2.3 mph 59.5% 0.00 in
08:09 60.5 °F 45.8 °F 29.90 in SSW 0.4 mph 4.8 mph 58.3% 0.00 in
08:14 60.8 °F 46.1 °F 29.90 in SW 2 mph 4.8 mph 58.3% 0.00 in
08:19 61.3 °F 46.3 °F 29.90 in SSW 1.9 mph 4.8 mph 57.8% 0.00 in
08:24 61.8 °F 46.2 °F 29.90 in NNW 2.4 mph 6 mph 56.5% 0.00 in
08:29 62.3 °F 46.6 °F 29.90 in West 3 mph 8.4 mph 56.5% 0.00 in
08:34 62.6 °F 46.8 °F 29.90 in WNW 4.5 mph 10.8 mph 56.2% 0.00 in
08:39 62.5 °F 46.8 °F 29.90 in WNW 3 mph 8.4 mph 56.4% 0.00 in
08:44 62.3 °F 46.4 °F 29.90 in NNW 3.4 mph 8.4 mph 56% 0.00 in
08:49 62.6 °F 47.1 °F 29.90 in WNW 3.4 mph 14.4 mph 56.8% 0.00 in
08:54 63.4 °F 47.4 °F 29.90 in NW 3.3 mph 15 mph 56.1% 0.00 in
08:59 64 °F 47.1 °F 29.90 in NNW 5.7 mph 15 mph 54.1% 0.00 in
09:04 64.4 °F 47.2 °F 29.90 in NW 5.8 mph 12.7 mph 53.6% 0.00 in
09:09 64.8 °F 47.3 °F 29.90 in WNW 5.9 mph 16.1 mph 53% 0.00 in
09:14 65 °F 46.9 °F 29.90 in WNW 4.7 mph 12 mph 52.1% 0.00 in
09:19 65.1 °F 46.8 °F 29.90 in WNW 4.3 mph 13.2 mph 51.7% 0.00 in
09:24 65.2 °F 46.5 °F 29.90 in WNW 6.7 mph 19.6 mph 50.7% 0.00 in
09:29 65.1 °F 46.5 °F 29.91 in West 5.2 mph 16.1 mph 51% 0.00 in
09:34 65.2 °F 46.4 °F 29.91 in West 5.5 mph 17.3 mph 50.7% 0.00 in
09:39 64.9 °F 46.9 °F 29.91 in West 5.5 mph 16.1 mph 52% 0.00 in
09:44 65.2 °F 46.8 °F 29.91 in NNW 6.8 mph 23 mph 51.4% 0.00 in
09:49 65.1 °F 46.6 °F 29.91 in WNW 5.9 mph 15 mph 51.2% 0.00 in
09:54 65.2 °F 46.9 °F 29.91 in WNW 5.9 mph 15.6 mph 51.7% 0.00 in
09:59 65.8 °F 46.8 °F 29.91 in WNW 5 mph 12 mph 50.4% 0.00 in
10:04 66.2 °F 47.4 °F 29.91 in NW 5.3 mph 13.2 mph 50.8% 0.00 in
10:09 66.2 °F 47 °F 29.91 in West 5.6 mph 18.4 mph 50.1% 0.00 in
10:14 67.4 °F 48.1 °F 29.91 in West 4.5 mph 13.2 mph 50.1% 0.00 in
10:19 67.8 °F 49.1 °F 29.91 in WSW 4.7 mph 10.8 mph 51.1% 0.00 in
10:24 68.2 °F 48.8 °F 29.91 in NW 5.3 mph 15 mph 50% 0.00 in
10:29 68.1 °F 48.6 °F 29.92 in WSW 2.4 mph 6 mph 49.8% 0.00 in
10:34 67 °F 47.4 °F 29.92 in West 4.2 mph 10.8 mph 49.5% 0.00 in
10:39 67.3 °F 48.3 °F 29.92 in WNW 5 mph 13.2 mph 50.6% 0.00 in
10:44 67.7 °F 48.4 °F 29.92 in NW 5.1 mph 13.2 mph 50.2% 0.00 in
10:49 68.4 °F 49.3 °F 29.92 in SW 4.7 mph 10.8 mph 50.6% 0.00 in
10:54 68.2 °F 46.8 °F 29.92 in West 4.8 mph 12 mph 46.3% 0.00 in
10:59 67.1 °F 46.2 °F 29.92 in WNW 4.1 mph 15 mph 46.9% 0.00 in
11:04 67.8 °F 48.2 °F 29.92 in WSW 4.4 mph 15.6 mph 49.4% 0.00 in
11:09 68.3 °F 47 °F 29.92 in WNW 4.9 mph 16.1 mph 46.4% 0.00 in
11:14 69 °F 47.9 °F 29.92 in WNW 5 mph 12 mph 47% 0.00 in
11:19 69.6 °F 48.7 °F 29.92 in WSW 4.4 mph 12 mph 47.5% 0.00 in
11:24 70.1 °F 48.5 °F 29.92 in WNW 4.3 mph 12 mph 46.3% 0.00 in
11:29 69.5 °F 46.6 °F 29.93 in North 5.1 mph 16.1 mph 43.9% 0.00 in
11:34 68 °F 45.4 °F 29.93 in WNW 4 mph 13.2 mph 44.3% 0.00 in
11:39 67 °F 45.6 °F 29.93 in NW 4.9 mph 13.2 mph 46.2% 0.00 in
11:44 67.5 °F 46.7 °F 29.93 in NW 5.9 mph 16.8 mph 47.4% 0.00 in
11:49 69.2 °F 48.1 °F 29.93 in WNW 5 mph 17.3 mph 47.1% 0.00 in
11:54 69.6 °F 48.3 °F 29.93 in WNW 4.2 mph 10.8 mph 46.6% 0.00 in
11:59 69.6 °F 48.2 °F 29.93 in NNW 5.5 mph 13.2 mph 46.5% 0.00 in
12:04 70.1 °F 48.3 °F 29.92 in NNW 6.2 mph 16.8 mph 45.9% 0.00 in
12:09 69.4 °F 47.2 °F 29.92 in NNW 4.6 mph 10.8 mph 45.1% 0.00 in
12:14 70.4 °F 48.5 °F 29.92 in NW 5.2 mph 18.4 mph 45.8% 0.00 in
12:19 71.4 °F 48.7 °F 29.92 in West 5.4 mph 15 mph 44.7% 0.00 in
12:24 70.8 °F 46.5 °F 29.92 in West 5 mph 13.2 mph 41.9% 0.00 in
12:29 70.4 °F 46.4 °F 29.92 in NW 5.9 mph 12 mph 42.4% 0.00 in
12:34 69.8 °F 44.3 °F 29.92 in NW 6.4 mph 21.6 mph 39.9% 0.00 in
12:39 69.2 °F 45.7 °F 29.92 in NW 4.5 mph 20.7 mph 43% 0.00 in
12:44 70.5 °F 45.9 °F 29.92 in West 6.4 mph 14.4 mph 41.3% 0.00 in
12:49 71.4 °F 47.2 °F 29.92 in WSW 4.9 mph 15.6 mph 42.2% 0.00 in
12:54 71.4 °F 44.9 °F 29.92 in WNW 6.8 mph 14.4 mph 38.7% 0.00 in
12:59 70.9 °F 45.1 °F 29.92 in SW 5.1 mph 13.2 mph 39.7% 0.00 in
13:04 71.3 °F 44.3 °F 29.92 in WNW 7.2 mph 18 mph 38% 0.00 in
13:09 71.3 °F 44.2 °F 29.92 in WSW 6 mph 18.4 mph 37.8% 0.00 in
13:14 72.2 °F 44.7 °F 29.92 in West 8.8 mph 18.4 mph 37.4% 0.00 in
13:19 70.8 °F 43.7 °F 29.92 in NW 5 mph 18.4 mph 37.7% 0.00 in
13:24 71.4 °F 43.8 °F 29.92 in WNW 4.6 mph 16.8 mph 37% 0.00 in
13:29 70.9 °F 42.5 °F 29.92 in NNW 8.7 mph 25.3 mph 35.9% 0.00 in
13:34 70.2 °F 43.7 °F 29.92 in NNW 5.1 mph 12.7 mph 38.6% 0.00 in
13:39 70.7 °F 43.7 °F 29.92 in NNW 4.9 mph 18 mph 37.9% 0.00 in
13:44 71.8 °F 43.3 °F 29.92 in NW 6.6 mph 18 mph 35.9% 0.00 in
13:49 72.2 °F 43.3 °F 29.92 in NNW 7.7 mph 17.3 mph 35.4% 0.00 in
13:54 72.7 °F 44.2 °F 29.92 in NNW 4.4 mph 11.5 mph 36.1% 0.00 in
13:59 72.8 °F 43.1 °F 29.93 in NW 6.8 mph 18.4 mph 34.4% 0.00 in
14:04 71.6 °F 42.4 °F 29.93 in WNW 5.7 mph 18.4 mph 34.9% 0.00 in
14:09 71.4 °F 43.3 °F 29.93 in NW 4.8 mph 10.8 mph 36.3% 0.00 in
14:14 72 °F 41.5 °F 29.93 in WNW 6.8 mph 16.8 mph 33.3% 0.00 in
14:19 71.1 °F 40.6 °F 29.93 in NW 7.2 mph 17.3 mph 33.1% 0.00 in
14:24 71.7 °F 41.3 °F 29.93 in NNW 9.5 mph 19.6 mph 33.4% 0.00 in
14:29 71.9 °F 41.8 °F 29.93 in NW 6.9 mph 18.4 mph 33.7% 0.00 in
14:34 72.2 °F 42.6 °F 29.93 in WNW 6.8 mph 19.6 mph 34.4% 0.00 in
14:39 72.9 °F 41 °F 29.93 in NNW 9.9 mph 21.9 mph 31.7% 0.00 in
14:44 72.1 °F 40.7 °F 29.93 in NNW 9.5 mph 21.9 mph 32.1% 0.00 in
14:49 72.4 °F 41.6 °F 29.93 in NW 6.2 mph 16.1 mph 32.9% 0.00 in
14:54 72.9 °F 41.7 °F 29.93 in WNW 6.4 mph 17.3 mph 32.5% 0.00 in
14:59 72.8 °F 43.4 °F 29.93 in WNW 5.1 mph 17.3 mph 34.9% 0.00 in
15:04 72.8 °F 42.9 °F 29.93 in WNW 6 mph 16.1 mph 34.2% 0.00 in
15:09 73 °F 42 °F 29.93 in NW 8.5 mph 23 mph 32.8% 0.00 in
15:14 72.3 °F 40.2 °F 29.94 in NNW 7.1 mph 21.9 mph 31.3% 0.00 in
15:19 72 °F 41.3 °F 29.94 in WNW 6.2 mph 17.3 mph 33% 0.00 in
15:24 72.8 °F 41.8 °F 29.94 in NW 5.6 mph 19.6 mph 32.8% 0.00 in
15:29 72.8 °F 41.3 °F 29.94 in North 8.8 mph 21.9 mph 32.1% 0.00 in
15:34 72.5 °F 40.8 °F 29.93 in NNW 9.7 mph 23 mph 31.9% 0.00 in
15:39 72.7 °F 41.4 °F 29.93 in WNW 6.4 mph 16.1 mph 32.5% 0.00 in
15:44 72.9 °F 40.1 °F 29.93 in WNW 6 mph 13.2 mph 30.6% 0.00 in
15:49 73.3 °F 41.9 °F 29.93 in NW 5.1 mph 10.8 mph 32.4% 0.00 in
15:54 73.5 °F 42.3 °F 29.93 in WNW 7.2 mph 18.4 mph 32.5% 0.00 in
15:59 73.2 °F 41.8 °F 29.93 in NNW 7.5 mph 16.1 mph 32.3% 0.00 in
16:04 72.8 °F 41.4 °F 29.93 in NNW 8.2 mph 20.7 mph 32.3% 0.00 in
16:09 72.8 °F 41 °F 29.93 in NNW 6.3 mph 15 mph 31.7% 0.00 in
16:14 72.9 °F 42 °F 29.93 in NNW 4.6 mph 15 mph 32.8% 0.00 in
16:19 74.3 °F 44.3 °F 29.93 in West 3.9 mph 12 mph 34.3% 0.00 in
16:24 73.8 °F 41.8 °F 29.93 in NNW 7.9 mph 20.4 mph 31.7% 0.00 in
16:29 72.9 °F 41.6 °F 29.94 in NW 6.5 mph 21.9 mph 32.3% 0.00 in
16:34 72.7 °F 40.6 °F 29.94 in NNW 5.7 mph 12 mph 31.4% 0.00 in
16:39 72.6 °F 41 °F 29.94 in NW 5.4 mph 17.3 mph 32.1% 0.00 in
16:44 72.5 °F 40.5 °F 29.94 in NW 6.2 mph 16.8 mph 31.5% 0.00 in
16:49 72.2 °F 40.1 °F 29.94 in WSW 6.4 mph 17.3 mph 31.3% 0.00 in
16:54 72 °F 39.9 °F 29.94 in NW 7 mph 16.1 mph 31.2% 0.00 in
16:59 72.5 °F 40.3 °F 29.94 in West 4.7 mph 15 mph 31.4% 0.00 in
17:04 72.8 °F 40.9 °F 29.94 in NW 5.4 mph 14.4 mph 31.6% 0.00 in
17:09 72.9 °F 40.5 °F 29.94 in NNW 7.7 mph 19.6 mph 31.1% 0.00 in
17:14 72.4 °F 39.8 °F 29.95 in NNW 7.8 mph 19.6 mph 30.7% 0.00 in
17:19 72.3 °F 40.6 °F 29.95 in NNW 4.8 mph 15 mph 31.8% 0.00 in
17:24 72.4 °F 40.8 °F 29.95 in NNW 4.7 mph 15 mph 31.9% 0.00 in
17:29 72.4 °F 40.5 °F 29.96 in NNW 4.2 mph 15.6 mph 31.5% 0.00 in
17:34 72.6 °F 41 °F 29.96 in WNW 4.2 mph 12 mph 32% 0.00 in
17:39 72.6 °F 39.6 °F 29.96 in NW 6.3 mph 17.3 mph 30.3% 0.00 in
17:44 72.3 °F 40.3 °F 29.96 in WNW 4.7 mph 11.5 mph 31.4% 0.00 in
17:49 72.2 °F 40.2 °F 29.96 in West 4.8 mph 14.4 mph 31.3% 0.00 in
17:54 72 °F 39.8 °F 29.96 in NNW 5.1 mph 15 mph 31.2% 0.00 in
17:59 71.9 °F 40.1 °F 29.96 in NNW 6.3 mph 16.1 mph 31.7% 0.00 in
18:04 71.8 °F 40.4 °F 29.96 in NNW 5.6 mph 15 mph 32.1% 0.00 in
18:09 71.7 °F 40.2 °F 29.96 in NW 4.4 mph 12 mph 32% 0.00 in
18:14 71.3 °F 40.5 °F 29.98 in NW 3.1 mph 8.4 mph 32.8% 0.00 in
18:19 71.1 °F 41 °F 29.98 in NW 4 mph 13.2 mph 33.7% 0.00 in
18:24 70.4 °F 39.3 °F 29.98 in NW 4.6 mph 12 mph 32.2% 0.00 in
18:29 69.7 °F 39.7 °F 29.98 in NNW 3.5 mph 12 mph 33.6% 0.00 in
18:34 69 °F 39.4 °F 29.98 in WNW 3.9 mph 11.5 mph 33.9% 0.00 in
18:39 68.6 °F 39.8 °F 29.98 in NNW 2.7 mph 8.1 mph 34.9% 0.00 in
18:44 68.6 °F 39.6 °F 29.98 in NNW 4 mph 8.4 mph 34.8% 0.00 in
18:49 68.5 °F 39.7 °F 29.98 in NW 3 mph 7.2 mph 34.9% 0.00 in
18:54 68.4 °F 39.9 °F 29.98 in NNW 2.4 mph 6 mph 35.2% 0.00 in
18:59 68.3 °F 38.6 °F 29.98 in NNW 4.2 mph 10.8 mph 33.7% 0.00 in
19:04 68.2 °F 38.5 °F 29.98 in NNW 3.5 mph 8.4 mph 33.7% 0.00 in
19:09 68 °F 39 °F 29.98 in NNW 1.8 mph 4.8 mph 34.5% 0.00 in
19:14 67.7 °F 39.4 °F 29.98 in NNW 2.9 mph 6 mph 35.5% 0.00 in
19:19 67.3 °F 39.4 °F 29.98 in North 1.3 mph 7.2 mph 36.1% 0.00 in
19:24 67 °F 39.1 °F 29.98 in North 1.7 mph 6.9 mph 36% 0.00 in
19:29 66.7 °F 39.5 °F 29.99 in NNW 1.9 mph 4.8 mph 36.8% 0.00 in
19:34 66.4 °F 39.7 °F 29.99 in NNW 1.2 mph 4.8 mph 37.5% 0.00 in
19:39 66.1 °F 39.3 °F 29.99 in NNW 0.9 mph 4.6 mph 37.3% 0.00 in
19:44 65.7 °F 39.5 °F 29.99 in NNW 0.9 mph 3.6 mph 38.2% 0.00 in
19:49 65.3 °F 39.6 °F 29.99 in NNW 1 mph 3.6 mph 38.9% 0.00 in
19:54 64.9 °F 39.2 °F 29.99 in NNW 1.1 mph 2.4 mph 38.8% 0.00 in
19:59 64.5 °F 39.4 °F 30.00 in NNW 0.5 mph 2.4 mph 39.7% 0.00 in
20:04 64 °F 39.6 °F 30.00 in NNW 0.4 mph 3.6 mph 40.6% 0.00 in
20:09 63.5 °F 39.9 °F 30.00 in Calm   1.2 mph 41.8% 0.00 in
20:14 62.9 °F 39.6 °F 30.01 in NNW 0.4 mph 1.2 mph 42.3% 0.00 in
20:19 62.4 °F 39.6 °F 30.01 in NNW 0.1 mph 1.2 mph 43% 0.00 in
20:24 61.9 °F 39.7 °F 30.01 in NNW 0.7 mph 2.4 mph 43.9% 0.00 in
20:29 61.5 °F 39.8 °F 30.01 in NNW 0.6 mph 2.4 mph 44.8% 0.00 in
20:34 61.1 °F 39.9 °F 30.01 in NNW 0.2 mph 1.2 mph 45.6% 0.00 in
20:39 60.7 °F 39.8 °F 30.01 in NNW 0.1 mph 1.2 mph 46% 0.00 in
20:44 60.3 °F 39.9 °F 30.02 in NNW 0.4 mph 1.2 mph 46.8% 0.00 in
20:49 59.9 °F 40.1 °F 30.02 in Calm     47.9% 0.00 in
20:54 59.3 °F 40.4 °F 30.02 in NNW 0.2 mph 3.6 mph 49.4% 0.00 in
20:59 58.8 °F 40 °F 30.03 in North 1.2 mph 6 mph 49.6% 0.00 in
21:04 58.6 °F 40.3 °F 30.03 in North 1.5 mph 4.8 mph 50.4% 0.00 in
21:09 58.6 °F 39.8 °F 30.03 in NNW 1.8 mph 6 mph 49.7% 0.00 in
21:14 58.6 °F 39.8 °F 30.04 in NNW 0.8 mph 3.6 mph 49.5% 0.00 in
Willowsford Farm Weather
Compliments of Weather Underground - 2 mb

Free counters!